Time;durP1;ratioP1;P1;durP2;ratioP2;P2;SDS_P1;SDS_P2;PMS_P1;PMS_P2;Temp;Humidity;BMP_temperature;BMP_pressure;BME280_temperature;BME280_humidity;BME280_pressure;Samples;Min_cycle;Max_cycle;Signal;HPM_P1;HPM_P2
2021/10/13 00:00:58;;;;;;;20.80;16.83;;;;;;;8.06;79.90;101595.50;5061238;28;20531;-67
2021/10/13 00:03:24;;;;;;;14.23;12.83;;;;;;;8.23;78.99;101597.75;5044293;28;20197;-67
2021/10/13 00:05:50;;;;;;;14.90;12.20;;;;;;;7.98;78.76;101596.91;5061300;28;20265;-67
2021/10/13 00:08:15;;;;;;;13.23;11.93;;;;;;;7.87;79.60;101604.34;5061391;28;20412;-67
2021/10/13 00:10:40;;;;;;;21.47;16.70;;;;;;;8.09;79.22;101599.88;5061447;28;20165;-67
2021/10/13 00:13:06;;;;;;;16.33;13.13;;;;;;;8.04;79.12;101591.94;5061230;28;20256;-67
2021/10/13 00:15:31;;;;;;;13.20;11.90;;;;;;;8.05;78.62;101604.09;5061199;28;20197;-67
2021/10/13 00:17:56;;;;;;;15.63;14.03;;;;;;;8.08;78.81;101609.41;5061638;28;20205;-67
2021/10/13 00:20:22;;;;;;;15.90;14.13;;;;;;;7.99;78.50;101600.41;5059756;28;20499;-67
2021/10/13 00:22:47;;;;;;;16.63;14.20;;;;;;;8.07;79.42;101607.63;5060994;28;20202;-67
2021/10/13 00:25:13;;;;;;;14.60;12.60;;;;;;;7.96;78.37;101598.59;5043988;28;20180;-66
2021/10/13 00:27:38;;;;;;;15.67;13.60;;;;;;;7.93;78.88;101608.88;5060769;28;20205;-66
2021/10/13 00:30:04;;;;;;;14.63;12.90;;;;;;;8.11;78.19;101599.97;5060461;28;20528;-67
2021/10/13 00:32:29;;;;;;;15.80;14.03;;;;;;;7.87;78.37;101601.75;5061224;28;20165;-68
2021/10/13 00:34:55;;;;;;;13.50;12.23;;;;;;;8.13;77.67;101604.34;5060639;28;20427;-67
2021/10/13 00:37:21;;;;;;;15.30;13.70;;;;;;;7.56;79.74;101612.75;5043296;28;20173;-68
2021/10/13 00:39:46;;;;;;;19.40;14.23;;;;;;;7.57;80.37;101605.03;5061107;28;20173;-67
2021/10/13 00:42:11;;;;;;;14.03;12.63;;;;;;;7.80;79.10;101601.50;5060320;28;20208;-67
2021/10/13 00:44:36;;;;;;;14.00;12.70;;;;;;;7.66;79.32;101604.50;5060447;28;20170;-67
2021/10/13 00:47:02;;;;;;;15.40;13.83;;;;;;;7.86;78.92;101600.00;5060896;28;20162;-67
2021/10/13 00:49:27;;;;;;;14.87;13.40;;;;;;;7.92;78.79;101609.72;5060633;28;20444;-67
2021/10/13 00:51:52;;;;;;;15.77;13.90;;;;;;;7.73;79.41;101613.38;5060186;28;20232;-69
2021/10/13 00:54:18;;;;;;;14.17;12.70;;;;;;;7.90;79.06;101608.75;5060758;28;20184;-68
2021/10/13 00:56:44;;;;;;;12.80;11.60;;;;;;;7.99;77.64;101600.41;5043029;28;20170;-67
2021/10/13 00:59:09;;;;;;;14.33;12.97;;;;;;;7.82;79.28;101612.81;5060150;28;20435;-67
2021/10/13 01:01:50;;;;;;;13.70;12.40;;;;;;;7.78;78.90;101605.75;5060491;28;20530;-67
2021/10/13 01:04:53;;;;;;;13.97;12.53;;;;;;;7.98;77.72;101594.31;5043159;28;20257;-67
2021/10/13 01:07:45;;;;;;;17.77;14.33;;;;;;;7.73;78.75;101597.81;5060165;28;20411;-67
2021/10/13 01:10:21;;;;;;;17.33;12.80;;;;;;;7.55;79.07;101600.59;5059955;28;20828;-66
2021/10/13 01:13:10;;;;;;;14.07;12.60;;;;;;;7.70;78.76;101601.16;5042588;28;20412;-66
2021/10/13 01:15:43;;;;;;;16.43;13.83;;;;;;;7.90;78.84;101604.47;5060020;28;20412;-67
2021/10/13 01:18:20;;;;;;;13.77;12.43;;;;;;;7.73;79.51;101616.84;5042761;28;20420;-67
2021/10/13 01:21:08;;;;;;;16.00;13.70;;;;;;;7.67;79.04;101608.84;5042456;28;20992;-66
2021/10/13 01:24:03;;;;;;;15.93;14.27;;;;;;;7.98;78.10;101606.44;5059648;28;20460;-67
2021/10/13 01:26:34;;;;;;;16.77;14.10;;;;;;;7.65;78.83;101607.91;5059958;28;20654;-68
2021/10/13 01:29:02;;;;;;;14.23;12.83;;;;;;;7.55;79.45;101616.19;5042686;28;20507;-67
2021/10/13 01:31:35;;;;;;;19.53;15.40;;;;;;;7.63;79.26;101613.88;5059335;28;20427;-67
2021/10/13 01:34:02;;;;;;;17.20;15.40;;;;;;;7.73;78.78;101613.38;5059548;28;20416;-67
2021/10/13 01:36:34;;;;;;;14.67;13.17;;;;;;;7.66;78.95;101609.69;5059612;28;20427;-68
2021/10/13 01:39:01;;;;;;;14.00;12.60;;;;;;;7.29;79.78;101618.69;5059467;28;20434;-68
2021/10/13 01:41:27;;;;;;;14.60;13.23;;;;;;;7.08;80.54;101614.47;5059866;28;20495;-67
2021/10/13 01:43:52;;;;;;;16.70;13.17;;;;;;;7.63;78.91;101604.38;5059243;28;20547;-69
2021/10/13 01:46:20;;;;;;;21.90;14.10;;;;;;;7.37;79.75;101624.19;5041956;28;20177;-67
2021/10/13 01:48:45;;;;;;;35.00;17.60;;;;;;;7.46;80.05;101613.28;5059937;28;21036;-70
2021/10/13 01:51:12;;;;;;;25.60;16.97;;;;;;;7.28;81.18;101622.16;5044467;28;20390;-69
2021/10/13 01:53:38;;;;;;;76.80;18.53;;;;;;;7.05;81.62;101627.34;5044160;28;20174;-68
2021/10/13 01:56:06;;;;;;;61.20;15.77;;;;;;;7.38;81.15;101628.53;5043397;28;20465;-67
2021/10/13 01:58:31;;;;;;;73.10;18.87;;;;;;;7.30;81.14;101630.84;5041698;28;20420;-68
2021/10/13 02:00:57;;;;;;;69.53;19.57;;;;;;;7.25;81.36;101622.91;5058797;28;20810;-67
2021/10/13 02:03:26;;;;;;;75.43;17.50;;;;;;;7.20;80.96;101628.75;5059237;28;20225;-68
2021/10/13 02:05:54;;;;;;;162.23;21.00;;;;;;;7.06;81.21;101636.88;5041646;28;20462;-67
2021/10/13 02:08:21;;;;;;;58.93;15.67;;;;;;;7.04;82.46;101642.84;5041720;28;20412;-67
2021/10/13 02:10:47;;;;;;;70.73;32.30;;;;;;;7.34;81.55;101637.91;5041795;28;20419;-67
2021/10/13 02:13:13;;;;;;;61.67;20.30;;;;;;;7.13;81.73;101637.09;5041642;28;20408;-66
2021/10/13 02:15:40;;;;;;;34.90;16.27;;;;;;;6.98;81.22;101642.59;5041451;28;20466;-68
2021/10/13 02:18:08;;;;;;;35.83;19.87;;;;;;;7.30;80.98;101645.53;5041962;28;20165;-67
2021/10/13 02:20:34;;;;;;;24.83;18.90;;;;;;;7.10;81.94;101645.66;5041271;28;20489;-67
2021/10/13 02:23:02;;;;;;;36.10;25.60;;;;;;;7.19;81.14;101648.59;5058439;28;20459;-67
2021/10/13 02:25:33;;;;;;;22.97;19.03;;;;;;;7.15;81.21;101657.09;5041800;28;20404;-67
2021/10/13 02:28:04;;;;;;;18.93;17.03;;;;;;;7.14;81.40;101649.25;5041107;28;20549;-67
2021/10/13 02:30:30;;;;;;;17.73;15.90;;;;;;;6.95;81.32;101658.91;5041060;28;20493;-68
2021/10/13 02:32:55;;;;;;;19.80;17.20;;;;;;;6.81;82.33;101655.78;5058398;28;20424;-67
2021/10/13 02:35:21;;;;;;;39.50;21.03;;;;;;;7.11;82.15;101651.75;5058415;28;20411;-67
2021/10/13 02:37:46;;;;;;;25.70;19.97;;;;;;;7.44;80.91;101661.63;5058730;28;20195;-67
2021/10/13 02:40:12;;;;;;;52.03;21.10;;;;;;;7.25;82.06;101660.91;5058060;28;20177;-67
2021/10/13 02:42:38;;;;;;;102.03;25.60;;;;;;;7.22;83.04;101653.91;5057489;28;20229;-67
2021/10/13 02:45:04;;;;;;;53.27;21.00;;;;;;;7.30;82.09;101650.72;5041262;28;20161;-67
2021/10/13 02:47:35;;;;;;;66.40;22.73;;;;;;;7.37;81.64;101656.22;5040776;28;20810;-67
2021/10/13 02:50:08;;;;;;;146.77;21.77;;;;;;;7.36;81.15;101649.25;5058172;28;20932;-67
2021/10/13 02:52:55;;;;;;;103.90;23.23;;;;;;;7.31;81.62;101658.56;5058144;28;20456;-67
2021/10/13 02:55:33;;;;;;;69.23;22.43;;;;;;;7.52;81.96;101655.00;5058056;28;20403;-67
2021/10/13 02:58:04;;;;;;;101.93;22.57;;;;;;;7.29;81.71;101652.41;5058127;28;20684;-67
2021/10/13 03:00:31;;;;;;;100.33;22.37;;;;;;;7.62;80.58;101646.72;5057929;28;20403;-67
2021/10/13 03:03:11;;;;;;;85.07;23.77;;;;;;;7.32;81.11;101655.16;5040765;28;20510;-68
2021/10/13 03:05:36;;;;;;;84.27;20.83;;;;;;;7.47;81.08;101656.53;5058055;28;20431;-67
2021/10/13 03:08:07;;;;;;;106.47;22.90;;;;;;;7.50;80.93;101652.34;5040563;28;20428;-67
2021/10/13 03:10:36;;;;;;;462.87;46.83;;;;;;;7.33;81.25;101650.84;5040893;28;20534;-67
2021/10/13 03:13:02;;;;;;;167.17;23.23;;;;;;;7.20;81.96;101659.88;5060092;28;20416;-67
2021/10/13 03:15:28;;;;;;;40.10;22.47;;;;;;;7.39;80.66;101654.53;5041457;28;20470;-67
2021/10/13 03:17:56;;;;;;;159.47;24.83;;;;;;;7.01;81.74;101658.25;5040865;28;20408;-67
2021/10/13 03:20:24;;;;;;;176.57;27.90;;;;;;;6.83;82.65;101655.81;5058316;28;20458;-68
2021/10/13 03:22:52;;;;;;;57.00;23.20;;;;;;;7.17;82.14;101659.72;5057946;28;20463;-68
2021/10/13 03:25:28;;;;;;;38.03;20.20;;;;;;;7.31;81.07;101657.69;5058045;28;20470;-68
2021/10/13 03:27:53;;;;;;;41.13;18.83;;;;;;;7.34;80.82;101658.66;5058032;28;20416;-68
2021/10/13 03:30:19;;;;;;;42.73;20.00;;;;;;;7.14;80.95;101667.41;5057763;28;20450;-69
2021/10/13 03:32:45;;;;;;;41.53;19.77;;;;;;;6.97;82.17;101665.03;5058332;28;20169;-68
2021/10/13 03:35:19;;;;;;;26.93;19.50;;;;;;;7.05;81.42;101658.44;5057728;28;20181;-67
2021/10/13 03:37:44;;;;;;;30.27;24.00;;;;;;;6.91;81.51;101662.19;5058004;28;20674;-66
2021/10/13 03:40:10;;;;;;;29.07;18.77;;;;;;;6.86;81.83;101664.63;5058392;28;20438;-67
2021/10/13 03:42:35;;;;;;;17.70;15.80;;;;;;;6.74;82.11;101670.19;5057531;28;20206;-66
2021/10/13 03:45:00;;;;;;;22.47;16.53;;;;;;;6.96;81.59;101678.81;5057816;28;20169;-67
2021/10/13 03:47:26;;;;;;;17.47;15.67;;;;;;;6.99;80.67;101681.53;5058377;28;20189;-66
2021/10/13 03:49:51;;;;;;;26.47;21.90;;;;;;;6.86;81.80;101674.09;5040569;28;20205;-68
2021/10/13 03:52:16;;;;;;;19.03;16.80;;;;;;;6.93;80.26;101677.81;5057550;28;20226;-68
2021/10/13 03:54:41;;;;;;;16.27;14.57;;;;;;;6.82;80.87;101677.38;5059903;28;20165;-67
2021/10/13 03:57:07;;;;;;;17.67;15.97;;;;;;;6.72;80.82;101677.03;5061422;28;20197;-67
2021/10/13 03:59:32;;;;;;;16.60;14.90;;;;;;;6.80;80.22;101689.41;5043887;28;20184;-66
2021/10/13 04:01:57;;;;;;;17.90;14.43;;;;;;;6.90;80.01;101689.84;5061393;28;20477;-67
2021/10/13 04:04:22;;;;;;;20.20;17.43;;;;;;;6.94;79.90;101693.44;5061245;28;20184;-67
2021/10/13 04:06:48;;;;;;;17.73;15.93;;;;;;;6.80;80.50;101700.66;5061219;28;20287;-68
2021/10/13 04:09:13;;;;;;;15.00;13.50;;;;;;;6.63;80.55;101697.38;5061563;28;20434;-67
2021/10/13 04:11:38;;;;;;;20.93;17.87;;;;;;;6.61;81.09;101692.97;5060941;28;20185;-66
2021/10/13 04:14:04;;;;;;;20.03;15.50;;;;;;;6.21;82.18;101697.31;5060984;28;20170;-68
2021/10/13 04:16:29;;;;;;;16.57;14.87;;;;;;;6.64;81.00;101699.13;5061569;28;20169;-67
2021/10/13 04:18:54;;;;;;;21.00;16.63;;;;;;;6.58;80.90;101698.91;5061071;28;20189;-67
2021/10/13 04:21:19;;;;;;;19.87;17.77;;;;;;;6.44;81.55;101700.00;5060883;28;20418;-68
2021/10/13 04:23:45;;;;;;;19.83;17.40;;;;;;;6.44;81.36;101695.75;5061643;28;20276;-68
2021/10/13 04:26:10;;;;;;;18.60;16.60;;;;;;;6.48;81.18;101697.63;5043528;28;20193;-68
2021/10/13 04:28:35;;;;;;;18.77;16.90;;;;;;;6.47;82.01;101693.28;5060861;28;20545;-67
2021/10/13 04:31:01;;;;;;;17.83;16.03;;;;;;;6.30;81.66;101691.66;5061503;28;20173;-69
2021/10/13 04:33:26;;;;;;;24.00;18.70;;;;;;;6.47;81.39;101689.78;5061485;28;20165;-68
2021/10/13 04:35:51;;;;;;;19.87;17.37;;;;;;;6.53;81.82;101688.31;5061231;28;20215;-67
2021/10/13 04:38:16;;;;;;;19.57;16.37;;;;;;;6.53;81.38;101684.88;5061323;28;20173;-68
2021/10/13 04:40:42;;;;;;;19.57;17.30;;;;;;;6.49;81.49;101690.75;5043260;28;20177;-68
2021/10/13 04:43:07;;;;;;;20.27;18.00;;;;;;;6.36;81.63;101685.03;5060639;28;20581;-67
2021/10/13 04:45:33;;;;;;;19.43;17.43;;;;;;;6.68;81.09;101677.69;5061144;28;20197;-67
2021/10/13 04:47:58;;;;;;;19.73;17.53;;;;;;;6.57;81.02;101679.84;5060493;28;20209;-68
2021/10/13 04:50:23;;;;;;;21.70;19.07;;;;;;;6.39;82.40;101682.56;5060321;28;20494;-67
2021/10/13 04:52:48;;;;;;;22.53;18.57;;;;;;;6.43;81.66;101687.88;5060356;28;20229;-67
2021/10/13 04:55:14;;;;;;;21.30;17.50;;;;;;;6.57;81.40;101686.75;5060354;28;20177;-67
2021/10/13 04:57:39;;;;;;;27.63;18.90;;;;;;;6.44;81.78;101694.84;5060350;28;20178;-67
2021/10/13 05:00:05;;;;;;;29.60;22.67;;;;;;;6.66;82.48;101692.31;5060011;28;20185;-67
2021/10/13 05:02:31;;;;;;;27.97;22.67;;;;;;;6.62;81.45;101689.56;5060043;28;20527;-67
2021/10/13 05:04:56;;;;;;;28.73;21.07;;;;;;;6.61;81.28;101688.66;5060882;28;20405;-66
2021/10/13 05:07:21;;;;;;;30.77;22.23;;;;;;;6.63;81.97;101681.84;5042269;28;20227;-68
2021/10/13 05:09:46;;;;;;;37.93;21.33;;;;;;;6.27;82.60;101676.88;5059915;28;20178;-68
2021/10/13 05:12:12;;;;;;;27.93;20.90;;;;;;;6.38;82.14;101688.56;5060451;28;20178;-67
2021/10/13 05:14:37;;;;;;;40.47;23.40;;;;;;;6.54;81.89;101690.09;5059828;28;20197;-68
2021/10/13 05:17:02;;;;;;;23.47;18.90;;;;;;;6.47;81.85;101694.94;5059801;28;20178;-67
2021/10/13 05:19:28;;;;;;;23.77;18.90;;;;;;;6.62;80.67;101694.75;5042930;28;20183;-67
2021/10/13 05:21:53;;;;;;;23.63;19.03;;;;;;;6.49;81.60;101690.75;5059664;28;20188;-68
2021/10/13 05:24:18;;;;;;;21.43;19.13;;;;;;;6.43;81.38;101690.47;5059783;28;20543;-67
2021/10/13 05:26:43;;;;;;;25.03;20.20;;;;;;;6.71;80.97;101685.63;5042754;28;20185;-67
2021/10/13 05:29:09;;;;;;;23.93;20.63;;;;;;;6.61;80.06;101692.97;5059788;28;20223;-67
2021/10/13 05:31:34;;;;;;;23.57;19.97;;;;;;;6.44;81.19;101700.00;5059280;28;20181;-68
2021/10/13 05:33:59;;;;;;;26.23;19.37;;;;;;;6.50;80.50;101700.28;5059908;28;20183;-68
2021/10/13 05:36:25;;;;;;;22.70;20.20;;;;;;;6.16;81.92;101701.44;5059585;28;20177;-67
2021/10/13 05:38:50;;;;;;;21.07;18.77;;;;;;;6.35;82.03;101706.59;5059505;28;20188;-68
2021/10/13 05:41:15;;;;;;;24.30;20.77;;;;;;;6.40;81.67;101699.91;5059806;28;20549;-68
2021/10/13 05:43:40;;;;;;;28.97;18.80;;;;;;;6.28;81.57;101701.97;5059159;28;20202;-68
2021/10/13 05:46:06;;;;;;;20.87;18.67;;;;;;;6.25;81.79;101704.41;5059128;28;20201;-67
2021/10/13 05:48:31;;;;;;;20.40;18.20;;;;;;;6.49;80.87;101714.06;5059654;28;20395;-68
2021/10/13 05:50:56;;;;;;;20.37;17.03;;;;;;;6.54;80.67;101713.41;5059035;28;20179;-67
2021/10/13 05:53:22;;;;;;;21.83;17.57;;;;;;;6.64;80.69;101714.69;5059102;28;20534;-68
2021/10/13 05:55:48;;;;;;;17.67;15.90;;;;;;;6.24;80.16;101715.59;5059669;28;20157;-68
2021/10/13 05:58:16;;;;;;;17.57;15.80;;;;;;;6.54;80.44;101718.59;5059023;28;20561;-67
2021/10/13 06:00:41;;;;;;;16.23;14.50;;;;;;;6.60;79.98;101720.56;5058928;28;20543;-68
2021/10/13 06:03:06;;;;;;;18.87;15.10;;;;;;;6.59;79.71;101729.16;5059237;28;20505;-67
2021/10/13 06:05:32;;;;;;;16.50;14.73;;;;;;;6.73;79.96;101719.38;5058900;28;20520;-69
2021/10/13 06:07:57;;;;;;;20.00;15.27;;;;;;;6.85;79.21;101724.19;5058761;28;20180;-68
2021/10/13 06:10:22;;;;;;;16.70;15.00;;;;;;;6.66;79.67;101726.00;5059062;28;20287;-67
2021/10/13 06:12:48;;;;;;;16.67;14.97;;;;;;;6.85;78.94;101729.38;5058646;28;20170;-68
2021/10/13 06:15:13;;;;;;;16.77;15.03;;;;;;;6.74;79.13;101734.97;5058594;28;20418;-67
2021/10/13 06:17:38;;;;;;;22.67;17.80;;;;;;;7.01;79.47;101736.94;5058190;28;20162;-67
2021/10/13 06:20:05;;;;;;;18.27;16.47;;;;;;;6.97;78.89;101744.50;5058478;28;20180;-67
2021/10/13 06:22:30;;;;;;;14.00;12.60;;;;;;;6.89;79.14;101742.50;5058292;28;20202;-67
2021/10/13 06:24:56;;;;;;;12.73;11.40;;;;;;;6.82;78.88;101750.84;5059043;28;20487;-67
2021/10/13 06:27:23;;;;;;;14.30;12.90;;;;;;;6.92;78.71;101746.94;5058497;28;20169;-67
2021/10/13 06:29:48;;;;;;;13.10;11.90;;;;;;;6.64;79.64;101752.66;5058425;28;20442;-67
2021/10/13 06:32:14;;;;;;;12.60;11.40;;;;;;;6.42;79.52;101758.66;5058820;28;20396;-68
2021/10/13 06:34:39;;;;;;;12.30;11.10;;;;;;;6.39;80.01;101762.88;5058406;28;20170;-68
2021/10/13 06:37:04;;;;;;;12.87;11.67;;;;;;;6.69;79.54;101770.19;5058505;28;20206;-67
2021/10/13 06:39:29;;;;;;;12.80;11.50;;;;;;;6.93;78.88;101764.25;5058930;28;20256;-68
2021/10/13 06:41:55;;;;;;;11.93;10.83;;;;;;;7.00;78.86;101762.81;5058069;28;20239;-69
2021/10/13 06:44:21;;;;;;;11.80;10.80;;;;;;;8.18;75.84;101758.63;5058200;28;20262;-68
2021/10/13 06:46:49;;;;;;;10.23;9.27;;;;;;;9.50;69.32;101752.56;5058472;28;20250;-66
2021/10/13 06:49:14;;;;;;;8.90;7.83;;;;;;;10.93;63.71;101753.94;5058212;28;20393;-68
2021/10/13 06:51:42;;;;;;;9.70;7.20;;;;;;;11.79;60.81;101744.53;5057908;28;20790;-67
2021/10/13 06:54:07;;;;;;;8.30;7.03;;;;;;;12.88;58.66;101747.47;5058653;28;20158;-67
2021/10/13 06:56:32;;;;;;;6.40;5.80;;;;;;;13.50;54.46;101745.75;5058090;28;20442;-67
2021/10/13 06:58:57;;;;;;;7.60;7.00;;;;;;;13.13;55.92;101747.84;5057904;28;20177;-69
2021/10/13 07:01:23;;;;;;;6.30;5.80;;;;;;;13.95;52.69;101752.47;5058546;28;20251;-68
2021/10/13 07:03:48;;;;;;;6.23;5.13;;;;;;;15.42;54.56;101747.66;5040791;28;20244;-66
2021/10/13 07:06:13;;;;;;;10.03;4.93;;;;;;;17.71;53.27;101742.66;5057927;28;20170;-65
2021/10/13 07:08:39;;;;;;;5.33;4.50;;;;;;;18.21;52.95;101740.69;5058292;28;20227;-64
2021/10/13 07:11:06;;;;;;;5.57;5.07;;;;;;;14.93;48.83;101762.22;5057667;28;20165;-73
2021/10/13 07:13:31;;;;;;;8.93;4.90;;;;;;;14.81;49.57;101759.47;5056386;28;20495;-70
2021/10/13 07:15:57;;;;;;;5.13;4.60;;;;;;;15.46;49.83;101763.44;5057788;28;20421;-69
2021/10/13 07:18:22;;;;;;;5.67;5.17;;;;;;;15.83;48.72;101760.19;5057586;28;20174;-70
2021/10/13 07:20:47;;;;;;;7.70;5.70;;;;;;;13.60;53.80;101771.25;5058135;28;20466;-69
2021/10/13 07:23:12;;;;;;;5.57;5.03;;;;;;;12.28;58.76;101769.91;5040895;28;20190;-70
2021/10/13 07:25:38;;;;;;;6.13;5.57;;;;;;;12.85;57.66;101777.91;5040453;28;20192;-70
2021/10/13 07:28:03;;;;;;;6.17;5.67;;;;;;;13.86;54.58;101775.06;5057676;28;20200;-70
2021/10/13 07:30:31;;;;;;;6.00;5.50;;;;;;;12.40;59.86;101778.00;5061237;28;20181;-70
2021/10/13 07:32:56;;;;;;;6.40;5.80;;;;;;;11.33;62.70;101782.69;5044631;28;20191;-70
2021/10/13 07:35:22;;;;;;;7.53;5.80;;;;;;;10.41;65.77;101789.09;5061777;28;20621;-69
2021/10/13 07:37:48;;;;;;;6.50;5.97;;;;;;;10.25;67.68;101792.97;5062125;28;20260;-70
2021/10/13 07:40:14;;;;;;;8.20;6.33;;;;;;;10.06;67.97;101792.44;5061362;28;20165;-71
2021/10/13 07:42:39;;;;;;;8.10;6.27;;;;;;;9.89;68.73;101797.16;5061435;28;20474;-71
2021/10/13 07:45:05;;;;;;;7.20;6.60;;;;;;;9.72;69.65;101794.06;5062156;28;20245;-71
2021/10/13 07:47:30;;;;;;;6.87;6.27;;;;;;;9.44;71.06;101789.72;5061319;28;20172;-71
2021/10/13 07:49:56;;;;;;;7.20;6.50;;;;;;;9.46;71.01;101792.38;5061741;28;20389;-70
2021/10/13 07:52:21;;;;;;;6.60;6.00;;;;;;;9.45;71.38;101794.09;5061922;28;20469;-71
2021/10/13 07:54:47;;;;;;;10.40;7.00;;;;;;;9.62;71.48;101799.84;5044308;28;20200;-70
2021/10/13 07:57:12;;;;;;;9.90;6.90;;;;;;;10.25;70.20;101792.97;5050729;28;20179;-74
2021/10/13 07:59:37;;;;;;;6.53;5.93;;;;;;;12.81;59.87;101787.44;5050450;28;20188;-75
2021/10/13 08:02:03;;;;;;;6.57;5.30;;;;;;;13.34;57.39;101778.72;5060995;28;20185;-77
2021/10/13 08:04:30;;;;;;;5.80;5.20;;;;;;;13.50;56.45;101776.34;5060618;28;20596;-76
2021/10/13 08:06:55;;;;;;;5.90;5.20;;;;;;;15.55;51.49;101780.16;5061060;28;20423;-77
2021/10/13 08:09:21;;;;;;;5.57;5.07;;;;;;;15.01;51.41;101778.03;5060499;28;20448;-74
2021/10/13 08:11:46;;;;;;;5.00;4.60;;;;;;;15.25;51.74;101776.44;5043496;28;20188;-72
2021/10/13 08:14:12;;;;;;;5.10;4.70;;;;;;;15.56;51.19;101771.38;5043677;28;20185;-71
2021/10/13 08:16:38;;;;;;;5.23;4.73;;;;;;;15.89;50.77;101767.22;5060792;28;20239;-71
2021/10/13 08:19:03;;;;;;;9.57;4.93;;;;;;;16.81;48.18;101764.75;5060914;28;20181;-72
2021/10/13 08:21:28;;;;;;;5.40;4.50;;;;;;;16.20;49.39;101764.69;5060574;28;20170;-72
2021/10/13 08:23:54;;;;;;;5.13;4.73;;;;;;;15.72;50.84;101774.97;5060540;28;20209;-74
2021/10/13 08:26:19;;;;;;;6.10;5.60;;;;;;;17.10;48.37;101770.91;5060638;28;20172;-75
2021/10/13 08:28:44;;;;;;;5.60;5.10;;;;;;;17.71;47.07;101766.41;5060583;28;20231;-74
2021/10/13 08:31:10;;;;;;;5.33;4.83;;;;;;;16.81;47.90;101770.03;5043038;28;20161;-73
2021/10/13 08:33:35;;;;;;;4.63;4.23;;;;;;;17.79;46.57;101770.78;5060763;28;20173;-72
2021/10/13 08:36:01;;;;;;;4.97;4.50;;;;;;;18.62;45.31;101773.88;5060317;28;20173;-73
2021/10/13 08:38:26;;;;;;;5.20;3.97;;;;;;;16.76;47.64;101782.31;5060363;28;20211;-72
2021/10/13 08:40:51;;;;;;;6.10;4.13;;;;;;;15.97;51.03;101782.13;5059577;28;20170;-71
2021/10/13 08:43:16;;;;;;;4.10;3.80;;;;;;;15.66;52.26;101794.22;5059748;28;20210;-73
2021/10/13 08:45:42;;;;;;;3.73;3.43;;;;;;;17.49;47.56;101783.19;5060260;28;20170;-76
2021/10/13 08:48:07;;;;;;;5.40;3.70;;;;;;;17.17;48.76;101780.59;5043326;28;20614;-75
2021/10/13 08:50:34;;;;;;;4.87;3.40;;;;;;;15.39;52.27;101789.69;5060086;28;20256;-75
2021/10/13 08:53:12;;;;;;;5.10;3.53;;;;;;;14.49;55.73;101804.63;5059929;28;20221;-74
2021/10/13 08:55:38;;;;;;;4.30;3.90;;;;;;;13.65;58.50;101813.22;5059840;28;20423;-75
2021/10/13 08:58:21;;;;;;;3.97;3.60;;;;;;;13.05;59.82;101812.28;5060057;28;20404;-75
2021/10/13 09:00:49;;;;;;;4.23;3.83;;;;;;;12.91;61.55;101807.69;5059660;28;20412;-74
2021/10/13 09:03:25;;;;;;;3.90;3.60;;;;;;;12.87;61.43;101812.84;5059755;28;20885;-74
2021/10/13 09:05:51;;;;;;;4.40;4.00;;;;;;;12.48;61.89;101806.06;5059652;28;20471;-72
2021/10/13 09:08:17;;;;;;;5.10;4.70;;;;;;;13.26;60.52;101803.88;5059873;28;20841;-70
2021/10/13 09:10:42;;;;;;;5.10;4.60;;;;;;;13.24;60.91;101805.59;5059897;28;20260;-70
2021/10/13 09:13:13;;;;;;;6.03;4.60;;;;;;;12.91;61.51;101809.44;5059684;28;20383;-70
2021/10/13 09:15:39;;;;;;;6.13;4.70;;;;;;;13.40;60.79;101810.25;5059817;28;20196;-71
2021/10/13 09:18:06;;;;;;;5.20;4.23;;;;;;;13.23;61.21;101807.34;5059646;28;20408;-69
2021/10/13 09:20:35;;;;;;;4.93;4.13;;;;;;;12.96;62.59;101813.88;5041943;28;20486;-71
2021/10/13 09:23:05;;;;;;;4.40;4.00;;;;;;;12.52;63.11;101820.94;5059501;28;20863;-69
2021/10/13 09:25:31;;;;;;;5.30;4.07;;;;;;;12.85;63.98;101819.78;5059750;28;20408;-71
2021/10/13 09:27:58;;;;;;;5.40;3.90;;;;;;;12.76;63.20;101820.53;5042149;28;20513;-70
2021/10/13 09:30:34;;;;;;;5.60;4.87;;;;;;;12.92;62.83;101816.41;5059110;28;20480;-70
2021/10/13 09:33:19;;;;;;;4.80;4.40;;;;;;;12.80;62.89;101817.97;5059008;28;20443;-70
2021/10/13 09:35:47;;;;;;;5.27;4.60;;;;;;;12.69;63.84;101816.00;5059355;28;20383;-70
2021/10/13 09:38:17;;;;;;;5.20;4.70;;;;;;;12.89;63.22;101813.75;5059403;28;20470;-70
2021/10/13 09:40:43;;;;;;;4.90;4.40;;;;;;;13.10;62.90;101814.13;5059286;28;20440;-71
2021/10/13 09:43:32;;;;;;;5.30;4.80;;;;;;;13.25;62.25;101810.00;5059434;28;20419;-69
2021/10/13 09:46:03;;;;;;;4.87;4.43;;;;;;;13.33;62.78;101811.00;5059430;28;20383;-70
2021/10/13 09:48:28;;;;;;;4.57;4.17;;;;;;;13.23;61.99;101812.59;5059672;28;20397;-69
2021/10/13 09:50:54;;;;;;;4.63;4.20;;;;;;;13.17;62.87;101806.38;5058934;28;20379;-69
2021/10/13 09:53:30;;;;;;;4.50;4.10;;;;;;;13.36;62.79;101811.06;5058856;28;20300;-68
2021/10/13 09:55:55;;;;;;;4.77;4.27;;;;;;;13.03;63.20;101820.13;5059578;28;20196;-69
2021/10/13 09:58:28;;;;;;;5.13;4.37;;;;;;;12.66;64.71;101813.34;5041757;28;20456;-68
2021/10/13 10:01:13;;;;;;;7.57;4.47;;;;;;;12.52;66.02;101807.88;5058810;28;20215;-69
2021/10/13 10:03:40;;;;;;;5.00;4.50;;;;;;;12.41;66.36;101813.75;5058750;28;20565;-69
2021/10/13 10:06:06;;;;;;;4.80;4.40;;;;;;;12.26;66.51;101814.34;5059380;28;20439;-70
2021/10/13 10:08:50;;;;;;;4.57;4.20;;;;;;;12.37;66.14;101817.16;5058652;28;20473;-69
2021/10/13 10:11:26;;;;;;;5.57;4.70;;;;;;;12.76;64.38;101818.78;5058507;28;20527;-68
2021/10/13 10:13:51;;;;;;;5.50;4.67;;;;;;;12.68;65.25;101823.00;5058811;28;20423;-69
2021/10/13 10:16:28;;;;;;;10.43;7.47;;;;;;;12.93;64.60;101826.03;5058545;28;20482;-69
2021/10/13 10:18:54;;;;;;;5.17;4.63;;;;;;;12.68;64.90;101832.56;5041209;28;20166;-68
2021/10/13 10:21:22;;;;;;;5.97;5.07;;;;;;;13.70;61.86;101827.28;5058836;28;20408;-69
2021/10/13 10:23:55;;;;;;;6.73;5.00;;;;;;;14.52;59.73;101820.44;5062030;28;20201;-69
2021/10/13 10:26:26;;;;;;;5.27;4.77;;;;;;;14.17;60.57;101830.50;5059755;28;20415;-69
2021/10/13 10:28:52;;;;;;;5.70;4.70;;;;;;;14.02;60.74;101826.84;5058388;28;20408;-68
2021/10/13 10:31:29;;;;;;;5.80;4.97;;;;;;;13.84;61.87;101830.06;5058174;28;20408;-69
2021/10/13 10:34:03;;;;;;;5.03;4.63;;;;;;;13.38;62.85;101839.88;5058288;28;20222;-68
2021/10/13 10:36:35;;;;;;;4.90;4.40;;;;;;;13.11;63.36;101834.22;5058338;28;20796;-70
2021/10/13 10:39:45;;;;;;;4.40;4.00;;;;;;;13.35;63.55;101838.06;5058456;28;20881;-71
2021/10/13 10:42:10;;;;;;;5.37;4.43;;;;;;;13.68;62.85;101835.97;5039374;28;20390;-70
2021/10/13 10:44:41;;;;;;;5.13;4.63;;;;;;;13.88;62.95;101838.88;5060293;28;20674;-70
2021/10/13 10:47:17;;;;;;;6.57;4.50;;;;;;;13.95;62.63;101831.13;5059946;28;20284;-70
2021/10/13 10:49:53;;;;;;;5.30;4.80;;;;;;;14.24;62.41;101829.72;5040761;28;20431;-69
2021/10/13 10:52:26;;;;;;;5.83;5.00;;;;;;;13.74;63.92;101831.69;5057696;28;20463;-69
2021/10/13 10:55:09;;;;;;;5.83;5.00;;;;;;;13.55;64.48;101841.03;5058032;28;20653;-70
2021/10/13 10:57:47;;;;;;;6.17;4.83;;;;;;;13.88;63.99;101844.13;5057787;28;20390;-69
2021/10/13 11:00:21;;;;;;;4.63;4.10;;;;;;;14.14;62.63;101839.22;5057880;28;20502;-70
2021/10/13 11:02:50;;;;;;;6.90;4.67;;;;;;;14.03;62.58;101832.94;5057690;28;20506;-70
2021/10/13 11:05:15;;;;;;;5.13;4.30;;;;;;;14.04;62.91;101829.47;5057351;28;20440;-71
2021/10/13 11:07:42;;;;;;;6.33;4.27;;;;;;;14.71;61.49;101832.03;5074483;28;20788;-69
2021/10/13 11:10:12;;;;;;;5.53;3.97;;;;;;;13.73;63.64;101829.94;5078323;28;20165;-71
2021/10/13 11:12:57;;;;;;;4.37;3.97;;;;;;;14.34;61.54;101828.94;5077783;28;20427;-72
2021/10/13 11:15:24;;;;;;;3.80;3.40;;;;;;;14.68;61.28;101823.22;5068580;28;20397;-71
2021/10/13 11:17:50;;;;;;;10.07;4.77;;;;;;;14.79;61.45;101827.72;5057685;28;20431;-71
2021/10/13 11:20:18;;;;;;;8.53;4.47;;;;;;;15.02;60.58;101827.06;5057516;28;20408;-74
2021/10/13 11:22:44;;;;;;;6.30;4.47;;;;;;;15.77;59.60;101820.56;5057581;28;20422;-71